M I D A S
Marine Information and Data Acquisition System
Tripno 1782 of the Zeeleeuw from 2009-09-22 06:49:20 to 2009-09-22 14:29:12
Back to CruiseResearch ActivitiesStationsMapUnderway DataData graphs

EquipmentUnitsComments
TimeDGPSUTC
LatitudeDGPSDM.mWGS84
LongitudeDGPSDM.mWGS84
SpeedMeteo Stationm/sRelative wind speed
DirectionMeteo StationdegRelative wind direction
TemperatureMeteo Stationdeg CelciusAir temperature
PressureMeteo StationPaAtmospheric pressure
HumidityMeteo Station%Relative humidity
Missing or incorrect values are displayed as -999
Metereological data collected by the RV Zeeleeuw from 2009-09-22 06:50:13 to 2009-09-22 14:35:28
                                                                                    Next 1000 lines
Time Latitude Longitude Speed Direction Temperature Pressure Humidity
2009-09-22 06:50:24 51°13.662 2°55.96 4.2 8 13.4 102440 39
2009-09-22 06:50:28 51°13.662 2°55.96 2.7 4 13.4 102440 39
2009-09-22 06:50:33 51°13.662 2°55.96 3.3 5 13.4 102440 44
2009-09-22 06:50:39 51°13.662 2°55.96 2 1 13.4 102440 44
2009-09-22 06:50:43 51°13.662 2°55.96 2.2 -999 13.5 102440 40
2009-09-22 06:50:48 51°13.662 2°55.96 2.4 350 13.5 102440 40
2009-09-22 06:50:53 51°13.662 2°55.96 1.9 10 13.5 102440 42
2009-09-22 06:50:58 51°13.662 2°55.96 1.9 16 13.5 102440 42
2009-09-22 06:51:04 51°13.662 2°55.96 2.7 19 13.5 102440 41
2009-09-22 06:51:09 51°13.662 2°55.96 2.2 25 13.5 102440 41
2009-09-22 06:51:13 51°13.662 2°55.96 1.9 21 13.5 102440 41
2009-09-22 06:51:19 51°13.662 2°55.96 1.8 15 13.5 102440 41
2009-09-22 06:51:23 51°13.662 2°55.96 1.8 14 13.5 102440 40
2009-09-22 06:51:28 51°13.661 2°55.96 1.1 18 13.5 102440 40
2009-09-22 06:51:33 51°13.661 2°55.96 1.3 4 13.5 102440 45
2009-09-22 06:51:39 51°13.661 2°55.96 1.4 26 13.5 102440 45
2009-09-22 06:51:43 51°13.661 2°55.96 1.5 348 13.5 102440 45
2009-09-22 06:51:49 51°13.661 2°55.96 2 352 13.5 102440 45
2009-09-22 06:51:53 51°13.661 2°55.96 1 350 13.5 102440 44
2009-09-22 06:51:59 51°13.661 2°55.96 1.2 6 13.5 102440 44
2009-09-22 06:52:03 51°13.662 2°55.96 2.9 360 13.5 102440 41
2009-09-22 06:52:09 51°13.662 2°55.96 2.3 17 13.5 102440 41
2009-09-22 06:52:13 51°13.662 2°55.96 2.3 35 13.5 102440 40
2009-09-22 06:52:19 51°13.662 2°55.96 1.4 83 13.5 102440 40
2009-09-22 06:52:23 51°13.662 2°55.96 2.7 351 13.5 102440 45
2009-09-22 06:52:28 51°13.662 2°55.96 2 4 13.5 102440 45
2009-09-22 06:52:33 51°13.662 2°55.96 2.1 360 13.5 102440 42
2009-09-22 06:52:38 51°13.662 2°55.96 2.6 3 13.5 102440 42
2009-09-22 06:52:43 51°13.662 2°55.96 3.8 357 13.5 102440 40
2009-09-22 06:52:48 51°13.662 2°55.96 4.5 7 13.5 102440 40
2009-09-22 06:52:53 51°13.662 2°55.96 2.9 31 13.5 102440 42
2009-09-22 06:52:58 51°13.662 2°55.96 2.2 6 13.5 102440 42
2009-09-22 06:53:04 51°13.662 2°55.96 3.3 7 13.5 102440 40
2009-09-22 06:53:08 51°13.662 2°55.96 3.3 9 13.5 102440 40
2009-09-22 06:53:13 51°13.662 2°55.96 3.5 1 13.5 102440 45
2009-09-22 06:53:19 51°13.662 2°55.96 2.5 13 13.5 102440 45
2009-09-22 06:53:23 51°13.662 2°55.96 2.9 14 13.6 102440 42
2009-09-22 06:53:28 51°13.662 2°55.96 3.5 3 13.6 102440 42
2009-09-22 06:53:33 51°13.662 2°55.96 2.2 1 13.5 102440 41
2009-09-22 06:53:38 51°13.662 2°55.959 1.8 1 13.5 102440 41
2009-09-22 06:53:44 51°13.662 2°55.959 1.1 357 13.5 102440 44
2009-09-22 06:53:49 51°13.663 2°55.959 2.2 277 13.5 102440 44
2009-09-22 06:53:54 51°13.663 2°55.959 2.7 359 13.5 102440 44
2009-09-22 06:53:59 51°13.663 2°55.959 2.1 2 13.5 102440 44
2009-09-22 06:54:04 51°13.663 2°55.959 1.7 21 13.5 102440 40
2009-09-22 06:54:09 51°13.663 2°55.959 2.2 11 13.5 102440 40
2009-09-22 06:54:13 51°13.663 2°55.959 1.8 356 13.5 102440 45
2009-09-22 06:54:19 51°13.663 2°55.959 1.9 284 13.5 102440 45
2009-09-22 06:54:23 51°13.662 2°55.96 4.4 8 13.6 102440 41
2009-09-22 06:54:28 51°13.662 2°55.96 4.2 18 13.6 102440 41
2009-09-22 06:54:33 51°13.662 2°55.96 2.7 14 13.6 102440 44
2009-09-22 06:54:38 51°13.663 2°55.96 2.8 1 13.6 102440 44
2009-09-22 06:54:43 51°13.663 2°55.96 3.2 22 13.6 102440 40
2009-09-22 06:54:48 51°13.663 2°55.96 1.9 358 13.6 102440 40
2009-09-22 06:54:53 51°13.662 2°55.96 2.7 10 13.6 102440 40
2009-09-22 06:54:58 51°13.662 2°55.96 3.2 22 13.6 102440 40
2009-09-22 06:55:03 51°13.662 2°55.96 4.5 25 13.6 102440 44
2009-09-22 06:55:09 51°13.662 2°55.96 3.5 34 13.6 102440 44
2009-09-22 06:55:13 51°13.661 2°55.96 0.5 24 13.6 102440 44
2009-09-22 06:55:19 51°13.661 2°55.96 0.2 18 13.6 102440 44
2009-09-22 06:55:23 51°13.661 2°55.96 3 33 13.6 102440 41
2009-09-22 06:55:28 51°13.66 2°55.96 3.8 23 13.6 102440 41
2009-09-22 06:55:33 51°13.66 2°55.96 4.1 21 13.6 102440 42
2009-09-22 06:55:39 51°13.661 2°55.959 4.2 18 13.6 102440 42
2009-09-22 06:55:43 51°13.661 2°55.958 3 15 13.6 102440 44
2009-09-22 06:55:48 51°13.662 2°55.956 2 10 13.6 102440 44
2009-09-22 06:55:53 51°13.662 2°55.954 2 30 13.6 102440 43
2009-09-22 06:55:58 51°13.663 2°55.951 2.4 15 13.6 102440 43
2009-09-22 06:56:03 51°13.664 2°55.947 2.3 16 13.6 102440 40
2009-09-22 06:56:09 51°13.666 2°55.943 1.9 9 13.6 102440 40
2009-09-22 06:56:14 51°13.667 2°55.938 0.9 20 13.6 102440 45
2009-09-22 06:56:20 51°13.669 2°55.931 0.9 10 13.6 102440 45
2009-09-22 06:56:25 51°13.671 2°55.925 1.5 40 13.6 102440 40
2009-09-22 06:56:32 51°13.674 2°55.916 2 80 13.6 102440 40
2009-09-22 06:56:37 51°13.676 2°55.908 3.3 43 13.6 102440 42
2009-09-22 06:56:42 51°13.678 2°55.901 3.9 45 13.6 102440 42
2009-09-22 06:56:47 51°13.68 2°55.893 3.9 25 13.6 102440 43
2009-09-22 06:56:52 51°13.683 2°55.885 4.1 76 13.6 102440 43
2009-09-22 06:56:57 51°13.685 2°55.877 3.5 20 13.6 102440 42
2009-09-22 06:57:02 51°13.686 2°55.869 4.8 82 13.6 102440 42
2009-09-22 06:57:07 51°13.688 2°55.861 4.1 45 13.6 102440 41
2009-09-22 06:57:12 51°13.69 2°55.853 3.6 37 13.6 102440 41
2009-09-22 06:57:17 51°13.691 2°55.845 4.6 22 13.6 102440 40
2009-09-22 06:57:22 51°13.692 2°55.836 5.1 42 13.6 102440 40
2009-09-22 06:57:27 51°13.693 2°55.829 5.3 41 13.6 102440 40
2009-09-22 06:57:32 51°13.693 2°55.821 4.1 45 13.6 102440 40
2009-09-22 06:57:37 51°13.694 2°55.812 4.3 38 13.6 102440 45
2009-09-22 06:57:42 51°13.694 2°55.805 3.8 39 13.6 102440 45
2009-09-22 06:57:47 51°13.695 2°55.797 4.4 36 13.6 102440 41
2009-09-22 06:57:52 51°13.695 2°55.789 4.8 41 13.6 102440 41
2009-09-22 06:57:57 51°13.695 2°55.782 5.4 41 13.6 102440 41
2009-09-22 06:58:02 51°13.694 2°55.775 4.2 39 13.6 102440 41
2009-09-22 06:58:07 51°13.694 2°55.768 4.7 36 13.6 102440 41
2009-09-22 06:58:12 51°13.693 2°55.762 4.5 41 13.6 102440 41
2009-09-22 06:58:17 51°13.693 2°55.756 3.7 26 13.6 102440 45
2009-09-22 06:58:22 51°13.692 2°55.75 3.5 42 13.6 102440 45
2009-09-22 06:58:27 51°13.691 2°55.745 3.4 44 13.6 102440 39
2009-09-22 06:58:32 51°13.691 2°55.74 2.7 75 13.6 102440 39
2009-09-22 06:58:37 51°13.69 2°55.737 3.7 26 13.6 102440 45
2009-09-22 06:58:41 51°13.69 2°55.735 3.2 39 13.6 102440 45
2009-09-22 06:58:46 51°13.69 2°55.733 3.4 25 13.6 102440 40
2009-09-22 06:58:52 51°13.69 2°55.732 4.3 75 13.6 102440 40
2009-09-22 06:58:56 51°13.691 2°55.731 3.3 27 13.6 102440 41
2009-09-22 06:59:01 51°13.692 2°55.731 2.4 74 13.6 102440 41
2009-09-22 06:59:07 51°13.694 2°55.732 3 21 13.6 102440 43
2009-09-22 06:59:12 51°13.695 2°55.733 4.2 53 13.6 102440 43
2009-09-22 06:59:17 51°13.697 2°55.733 4 29 13.6 102440 40
2009-09-22 06:59:22 51°13.699 2°55.734 4.2 76 13.6 102440 40
2009-09-22 06:59:26 51°13.701 2°55.734 4.4 22 13.6 102440 40
2009-09-22 06:59:31 51°13.704 2°55.734 3.3 78 13.6 102440 40
2009-09-22 06:59:37 51°13.707 2°55.734 4.1 25 13.6 102440 41
2009-09-22 06:59:41 51°13.71 2°55.733 3.7 82 13.6 102440 41
2009-09-22 06:59:46 51°13.713 2°55.732 2.6 270 13.6 102440 40
2009-09-22 06:59:51 51°13.717 2°55.73 1.3 275 13.6 102440 40
2009-09-22 06:59:56 51°13.721 2°55.727 1.8 269 13.6 102440 42
2009-09-22 07:00:01 51°13.726 2°55.724 2.3 54 13.6 102440 42
2009-09-22 07:00:06 51°13.731 2°55.719 2.3 29 13.6 102440 43
2009-09-22 07:00:11 51°13.737 2°55.714 1.6 76 13.6 102440 43
2009-09-22 07:00:15 51°13.742 2°55.71 1.3 263 13.6 102440 44
2009-09-22 07:00:21 51°13.75 2°55.703 1.1 281 13.6 102440 44
2009-09-22 07:00:26 51°13.758 2°55.697 1.6 27 13.7 102440 40
2009-09-22 07:00:30 51°13.764 2°55.691 2 279 13.7 102440 40
2009-09-22 07:00:35 51°13.773 2°55.684 1.4 22 13.6 102440 45
2009-09-22 07:00:40 51°13.781 2°55.677 1.6 285 13.6 102440 45
2009-09-22 07:00:45 51°13.79 2°55.669 1.5 25 13.7 102430 40
2009-09-22 07:00:50 51°13.8 2°55.661 1.6 282 13.7 102430 40
2009-09-22 07:00:55 51°13.809 2°55.653 2.1 243 13.6 102430 41
2009-09-22 07:01:00 51°13.82 2°55.644 1.4 283 13.6 102430 41
2009-09-22 07:01:05 51°13.83 2°55.636 0.6 20 13.6 102440 43
2009-09-22 07:01:10 51°13.84 2°55.627 0.1 282 13.6 102440 43
2009-09-22 07:01:14 51°13.849 2°55.62 3.8 27 13.6 102430 41
2009-09-22 07:01:20 51°13.862 2°55.61 2.9 279 13.6 102430 41
2009-09-22 07:01:24 51°13.871 2°55.603 3.2 254 13.6 102430 42
2009-09-22 07:01:30 51°13.884 2°55.593 5.1 280 13.6 102430 42
2009-09-22 07:01:34 51°13.893 2°55.586 2.3 248 13.7 102430 45
2009-09-22 07:01:39 51°13.904 2°55.577 3 279 13.7 102430 45
2009-09-22 07:01:44 51°13.915 2°55.569 3.3 22 13.7 102430 44
2009-09-22 07:01:49 51°13.926 2°55.56 3.4 278 13.7 102430 44
2009-09-22 07:01:54 51°13.937 2°55.551 3.2 315 13.7 102440 45
2009-09-22 07:01:59 51°13.949 2°55.542 4 279 13.7 102440 45
2009-09-22 07:02:04 51°13.96 2°55.533 3.5 323 13.6 102430 43
2009-09-22 07:02:09 51°13.972 2°55.524 3.2 281 13.6 102430 43
2009-09-22 07:02:13 51°13.981 2°55.516 2.2 27 13.7 102430 44
2009-09-22 07:02:19 51°13.995 2°55.506 2.7 280 13.7 102430 44
2009-09-22 07:02:24 51°14.007 2°55.497 4.3 23 13.6 102430 40
2009-09-22 07:02:29 51°14.018 2°55.488 3 279 13.6 102430 40
2009-09-22 07:02:34 51°14.03 2°55.479 3.7 20 13.6 102440 44
2009-09-22 07:02:39 51°14.042 2°55.47 3.8 280 13.6 102440 44
2009-09-22 07:02:43 51°14.052 2°55.463 4.9 18 13.7 102430 45
2009-09-22 07:02:49 51°14.066 2°55.452 4.4 280 13.7 102430 45
2009-09-22 07:02:54 51°14.078 2°55.443 5.2 27 13.7 102430 42
2009-09-22 07:02:58 51°14.088 2°55.435 4.4 283 13.7 102430 42
2009-09-22 07:03:04 51°14.102 2°55.423 4.4 26 13.7 102430 42
2009-09-22 07:03:09 51°14.114 2°55.414 3.1 285 13.7 102430 42
2009-09-22 07:03:14 51°14.126 2°55.403 3.2 316 13.7 102440 45
2009-09-22 07:03:18 51°14.136 2°55.395 4.2 280 13.7 102440 45
2009-09-22 07:03:23 51°14.147 2°55.384 4.1 316 13.7 102430 40
2009-09-22 07:03:29 51°14.161 2°55.37 3.9 279 13.7 102430 40
2009-09-22 07:03:34 51°14.173 2°55.359 3.5 328 13.7 102430 41
2009-09-22 07:03:39 51°14.184 2°55.347 4.1 286 13.7 102430 41
2009-09-22 07:03:43 51°14.193 2°55.337 4.6 331 13.7 102440 44
2009-09-22 07:03:49 51°14.206 2°55.322 5.5 284 13.7 102440 44
2009-09-22 07:03:54 51°14.217 2°55.308 5.1 327 13.7 102430 43
2009-09-22 07:03:59 51°14.227 2°55.294 5.1 282 13.7 102430 43
2009-09-22 07:04:04 51°14.238 2°55.28 5 317 13.7 102440 40
2009-09-22 07:04:09 51°14.248 2°55.264 4.5 278 13.7 102440 40
2009-09-22 07:04:14 51°14.257 2°55.248 6.9 22 13.7 102430 41
2009-09-22 07:04:19 51°14.267 2°55.232 7.2 283 13.7 102430 41
2009-09-22 07:04:23 51°14.275 2°55.219 5.2 20 13.7 102430 43
2009-09-22 07:04:29 51°14.287 2°55.199 6.6 284 13.7 102430 43
2009-09-22 07:04:33 51°14.295 2°55.185 8.4 25 13.7 102430 42
2009-09-22 07:04:38 51°14.305 2°55.167 6.1 284 13.7 102430 42
2009-09-22 07:04:43 51°14.315 2°55.148 6.6 25 13.7 102420 41
2009-09-22 07:04:49 51°14.327 2°55.126 6.6 278 13.7 102420 41
2009-09-22 07:04:53 51°14.336 2°55.112 4.6 20 13.6 102430 41
2009-09-22 07:04:58 51°14.346 2°55.093 6.4 304 13.6 102430 41
2009-09-22 07:05:03 51°14.357 2°55.074 8.1 23 13.6 102430 41
2009-09-22 07:05:08 51°14.368 2°55.058 7.7 281 13.6 102430 41
2009-09-22 07:05:13 51°14.38 2°55.041 7.1 249 13.6 102430 42
2009-09-22 07:05:18 51°14.392 2°55.025 8.5 284 13.6 102430 42
2009-09-22 07:05:23 51°14.404 2°55.009 7.9 21 13.6 102430 44
2009-09-22 07:05:28 51°14.416 2°54.994 8 284 13.6 102430 44
2009-09-22 07:05:33 51°14.428 2°54.978 8 21 13.7 102430 42
2009-09-22 07:05:38 51°14.441 2°54.963 9.1 281 13.7 102430 42
2009-09-22 07:05:43 51°14.453 2°54.948 7.4 247 13.7 102430 44
2009-09-22 07:05:48 51°14.466 2°54.934 8.4 286 13.7 102430 44
2009-09-22 07:05:53 51°14.479 2°54.92 6.8 20 13.7 102430 42
2009-09-22 07:05:58 51°14.492 2°54.905 6.8 280 13.7 102430 42
2009-09-22 07:06:02 51°14.502 2°54.892 8.1 250 13.7 102430 42
2009-09-22 07:06:08 51°14.517 2°54.875 7.1 281 13.7 102430 42
2009-09-22 07:06:13 51°14.531 2°54.862 7.3 251 13.7 102440 42
2009-09-22 07:06:18 51°14.544 2°54.85 7.6 284 13.7 102440 42
2009-09-22 07:06:22 51°14.555 2°54.838 6.8 23 13.7 102430 41
2009-09-22 07:06:28 51°14.571 2°54.823 8 286 13.7 102430 41
2009-09-22 07:06:33 51°14.584 2°54.81 8 250 13.7 102440 44
2009-09-22 07:06:38 51°14.598 2°54.797 8.3 287 13.7 102440 44
2009-09-22 07:06:43 51°14.611 2°54.784 8 247 13.7 102440 42
2009-09-22 07:06:48 51°14.625 2°54.771 7.3 283 13.7 102440 42
2009-09-22 07:06:53 51°14.638 2°54.758 7.4 248 13.7 102440 43
2009-09-22 07:06:58 51°14.652 2°54.744 7.6 301 13.7 102440 43
2009-09-22 07:07:03 51°14.665 2°54.731 7.8 249 13.7 102440 44
2009-09-22 07:07:08 51°14.679 2°54.718 7.7 282 13.7 102440 44
2009-09-22 07:07:13 51°14.693 2°54.705 7.6 249 13.7 102440 41
2009-09-22 07:07:18 51°14.706 2°54.692 7.2 280 13.7 102440 41
2009-09-22 07:07:23 51°14.72 2°54.68 5.9 252 13.8 102440 44
2009-09-22 07:07:28 51°14.733 2°54.666 5.6 285 13.8 102440 44
2009-09-22 07:07:33 51°14.746 2°54.654 6.7 248 13.8 102440 44
2009-09-22 07:07:38 51°14.759 2°54.64 6.2 285 13.8 102440 44
2009-09-22 07:07:42 51°14.77 2°54.63 7.9 247 13.8 102440 41
2009-09-22 07:07:48 51°14.787 2°54.614 6.8 280 13.8 102440 41
2009-09-22 07:07:53 51°14.801 2°54.602 7.6 254 13.8 102440 41
2009-09-22 07:07:58 51°14.814 2°54.589 7.5 284 13.8 102440 41
2009-09-22 07:08:02 51°14.825 2°54.579 7.8 254 13.8 102430 42
2009-09-22 07:08:08 51°14.841 2°54.564 7.7 283 13.8 102430 42
2009-09-22 07:08:13 51°14.855 2°54.551 6 253 13.8 102440 42
2009-09-22 07:08:18 51°14.868 2°54.538 7.2 285 13.8 102440 42
2009-09-22 07:08:22 51°14.879 2°54.527 7 247 13.8 102440 41
2009-09-22 07:08:28 51°14.895 2°54.512 8.2 286 13.8 102440 41
2009-09-22 07:08:33 51°14.908 2°54.5 7.1 253 13.8 102440 44
2009-09-22 07:08:38 51°14.922 2°54.487 6.7 278 13.8 102440 44
2009-09-22 07:08:43 51°14.936 2°54.476 7 247 13.9 102440 44
2009-09-22 07:08:48 51°14.949 2°54.464 6.6 286 13.9 102440 44
2009-09-22 07:08:53 51°14.963 2°54.452 8.3 251 13.9 102440 41
2009-09-22 07:08:58 51°14.977 2°54.44 8 283 13.9 102440 41
2009-09-22 07:09:03 51°14.99 2°54.428 7.8 250 13.9 102450 40
2009-09-22 07:09:08 51°15.004 2°54.416 5.8 284 13.9 102450 40
2009-09-22 07:09:13 51°15.018 2°54.404 7.3 249 13.9 102440 42
2009-09-22 07:09:18 51°15.032 2°54.393 7 304 13.9 102440 42
2009-09-22 07:09:23 51°15.046 2°54.381 7.5 250 13.9 102440 45
2009-09-22 07:09:28 51°15.06 2°54.369 8.8 285 13.9 102440 45
2009-09-22 07:09:33 51°15.074 2°54.358 7.1 252 14 102440 44
2009-09-22 07:09:38 51°15.088 2°54.346 7 281 14 102440 44
2009-09-22 07:09:43 51°15.102 2°54.335 7.7 253 14 102440 42
2009-09-22 07:09:48 51°15.115 2°54.323 7.9 282 14 102440 42
2009-09-22 07:09:54 51°15.132 2°54.309 8.8 248 14 102440 42
2009-09-22 07:09:59 51°15.146 2°54.297 6.8 280 14 102440 42
2009-09-22 07:10:03 51°15.157 2°54.287 8.3 249 14 102440 42
2009-09-22 07:10:09 51°15.173 2°54.272 7.3 281 14 102440 42
2009-09-22 07:10:14 51°15.188 2°54.261 6.6 249 14 102450 43
2009-09-22 07:10:19 51°15.201 2°54.249 7.1 284 14 102450 43
2009-09-22 07:10:23 51°15.213 2°54.24 6.6 252 14 102450 44
2009-09-22 07:10:29 51°15.23 2°54.226 7.5 302 14 102450 44
2009-09-22 07:10:34 51°15.244 2°54.214 7.3 250 14 102450 42
2009-09-22 07:10:39 51°15.258 2°54.203 7.2 284 14 102450 42
2009-09-22 07:10:43 51°15.269 2°54.194 7.6 253 14.1 102450 41
2009-09-22 07:10:48 51°15.283 2°54.182 6.9 284 14.1 102450 41
2009-09-22 07:10:53 51°15.297 2°54.171 6.9 246 14.1 102450 42
2009-09-22 07:10:59 51°15.314 2°54.156 8.4 286 14.1 102450 42
2009-09-22 07:11:04 51°15.327 2°54.145 7.2 253 14.1 102450 42
2009-09-22 07:11:09 51°15.341 2°54.132 6.5 282 14.1 102450 42
2009-09-22 07:11:14 51°15.355 2°54.121 7.8 252 14.1 102450 41
2009-09-22 07:11:19 51°15.369 2°54.109 7.7 278 14.1 102450 41
2009-09-22 07:11:24 51°15.383 2°54.097 8.5 255 14.1 102450 44
2009-09-22 07:11:29 51°15.397 2°54.085 8.2 282 14.1 102450 44
2009-09-22 07:11:34 51°15.411 2°54.073 7.5 253 14.1 102450 41
2009-09-22 07:11:39 51°15.425 2°54.061 8 283 14.1 102450 41
2009-09-22 07:11:44 51°15.439 2°54.05 7.6 252 14.1 102450 43
2009-09-22 07:11:49 51°15.452 2°54.037 7.5 278 14.1 102450 43
2009-09-22 07:11:54 51°15.466 2°54.024 7.2 251 14.1 102450 42
2009-09-22 07:11:59 51°15.48 2°54.011 6.9 282 14.1 102450 42
2009-09-22 07:12:04 51°15.493 2°53.998 7.3 250 14.1 102450 42
2009-09-22 07:12:09 51°15.506 2°53.984 8 306 14.1 102450 42
2009-09-22 07:12:14 51°15.52 2°53.97 7.4 254 14.1 102450 44
2009-09-22 07:12:19 51°15.533 2°53.957 7.4 280 14.1 102450 44
2009-09-22 07:12:24 51°15.546 2°53.943 8.4 25 14.1 102440 42
2009-09-22 07:12:29 51°15.559 2°53.928 8.7 302 14.1 102440 42
2009-09-22 07:12:34 51°15.573 2°53.914 8.3 251 14.1 102450 41
2009-09-22 07:12:39 51°15.586 2°53.9 8.1 278 14.1 102450 41
2009-09-22 07:12:44 51°15.599 2°53.886 7.7 251 14.1 102440 45
2009-09-22 07:12:49 51°15.612 2°53.872 8 284 14.1 102440 45
2009-09-22 07:12:54 51°15.626 2°53.858 6.9 252 14.1 102440 42
2009-09-22 07:12:59 51°15.639 2°53.844 8.7 284 14.1 102440 42
2009-09-22 07:13:04 51°15.652 2°53.83 7.1 251 14.1 102440 44
2009-09-22 07:13:09 51°15.666 2°53.817 7.5 286 14.1 102440 44
2009-09-22 07:13:14 51°15.679 2°53.802 8 248 14.1 102440 44
2009-09-22 07:13:19 51°15.692 2°53.789 8.5 307 14.1 102440 44
2009-09-22 07:13:24 51°15.706 2°53.775 8.5 249 14.2 102440 42
2009-09-22 07:13:29 51°15.719 2°53.761 9.7 285 14.2 102440 42
2009-09-22 07:13:34 51°15.732 2°53.747 8 251 14.2 102440 42
2009-09-22 07:13:39 51°15.745 2°53.732 7.2 285 14.2 102440 42
2009-09-22 07:13:44 51°15.759 2°53.718 8.1 252 14.2 102440 43
2009-09-22 07:13:49 51°15.772 2°53.703 7.4 283 14.2 102440 43
2009-09-22 07:13:54 51°15.785 2°53.689 7.4 20 14.1 102440 44
2009-09-22 07:13:59 51°15.798 2°53.675 7.3 284 14.1 102440 44
2009-09-22 07:14:04 51°15.812 2°53.661 7.1 248 14.2 102450 43
2009-09-22 07:14:09 51°15.825 2°53.646 8.7 280 14.2 102450 43
2009-09-22 07:14:14 51°15.838 2°53.632 8 250 14.2 102440 42
2009-09-22 07:14:19 51°15.852 2°53.618 8.9 280 14.2 102440 42
2009-09-22 07:14:24 51°15.865 2°53.604 8 252 14.2 102440 40
2009-09-22 07:14:29 51°15.879 2°53.59 7.7 281 14.2 102440 40
2009-09-22 07:14:34 51°15.892 2°53.576 8 252 14.2 102440 42
2009-09-22 07:14:39 51°15.905 2°53.562 7.7 279 14.2 102440 42
2009-09-22 07:14:44 51°15.918 2°53.548 7.8 248 14.2 102440 42
2009-09-22 07:14:49 51°15.932 2°53.534 8.3 285 14.2 102440 42
2009-09-22 07:14:54 51°15.945 2°53.519 7 22 14.2 102440 44
2009-09-22 07:14:59 51°15.958 2°53.505 8.6 279 14.2 102440 44
2009-09-22 07:15:04 51°15.972 2°53.491 7.3 249 14.2 102440 44
2009-09-22 07:15:09 51°15.985 2°53.476 7.6 280 14.2 102440 44
2009-09-22 07:15:14 51°15.998 2°53.461 8.4 23 14.2 102440 42
2009-09-22 07:15:19 51°16.011 2°53.447 7.9 279 14.2 102440 42
2009-09-22 07:15:24 51°16.024 2°53.432 7.3 253 14.3 102440 45
2009-09-22 07:15:29 51°16.038 2°53.418 6.8 283 14.3 102440 45
2009-09-22 07:15:34 51°16.051 2°53.404 8.1 244 14.3 102440 42
2009-09-22 07:15:39 51°16.065 2°53.39 8.2 280 14.3 102440 42
2009-09-22 07:15:44 51°16.078 2°53.375 7.6 250 14.3 102440 42
2009-09-22 07:15:49 51°16.092 2°53.362 8.1 280 14.3 102440 42
2009-09-22 07:15:54 51°16.105 2°53.347 8.7 21 14.3 102440 42
2009-09-22 07:15:59 51°16.118 2°53.333 8.4 285 14.3 102440 42
2009-09-22 07:16:04 51°16.132 2°53.319 8.6 245 14.3 102440 45
2009-09-22 07:16:09 51°16.145 2°53.305 7.9 279 14.3 102440 45
2009-09-22 07:16:14 51°16.159 2°53.29 9.2 248 14.3 102440 45
2009-09-22 07:16:19 51°16.172 2°53.276 8.2 278 14.3 102440 45
2009-09-22 07:16:24 51°16.185 2°53.262 8.2 250 14.3 102440 43
2009-09-22 07:16:29 51°16.199 2°53.247 8 281 14.3 102440 43
2009-09-22 07:16:34 51°16.212 2°53.233 9.4 248 14.4 102440 43
2009-09-22 07:16:39 51°16.226 2°53.219 8.2 285 14.4 102440 43
2009-09-22 07:16:44 51°16.239 2°53.205 9.1 251 14.4 102440 43
2009-09-22 07:16:49 51°16.253 2°53.191 8.6 284 14.4 102440 43
2009-09-22 07:16:54 51°16.266 2°53.176 8.4 252 14.4 102440 45
2009-09-22 07:16:59 51°16.279 2°53.162 7.1 284 14.4 102440 45
2009-09-22 07:17:04 51°16.293 2°53.148 7.9 247 14.4 102440 42
2009-09-22 07:17:09 51°16.307 2°53.134 7.6 283 14.4 102440 42
2009-09-22 07:17:14 51°16.32 2°53.12 8.5 250 14.4 102440 42
2009-09-22 07:17:19 51°16.333 2°53.106 8 281 14.4 102440 42
2009-09-22 07:17:24 51°16.347 2°53.092 8.1 251 14.4 102440 44
2009-09-22 07:17:29 51°16.361 2°53.077 7.9 285 14.4 102440 44
2009-09-22 07:17:34 51°16.374 2°53.063 7.4 21 14.4 102430 44
2009-09-22 07:17:39 51°16.388 2°53.049 8.5 307 14.4 102430 44
2009-09-22 07:17:44 51°16.401 2°53.034 8.5 250 14.4 102440 45
2009-09-22 07:17:49 51°16.415 2°53.02 9 279 14.4 102440 45
2009-09-22 07:17:54 51°16.428 2°53.006 8.6 248 14.4 102430 43
2009-09-22 07:17:59 51°16.442 2°52.992 9.5 280 14.4 102430 43
2009-09-22 07:18:04 51°16.455 2°52.978 8.6 249 14.5 102440 44
2009-09-22 07:18:09 51°16.469 2°52.964 9.3 282 14.5 102440 44
2009-09-22 07:18:14 51°16.483 2°52.95 9.6 248 14.5 102440 43
2009-09-22 07:18:19 51°16.496 2°52.936 8.6 304 14.5 102440 43
2009-09-22 07:18:24 51°16.51 2°52.923 8.7 251 14.5 102440 44
2009-09-22 07:18:29 51°16.523 2°52.91 8.9 281 14.5 102440 44
2009-09-22 07:18:34 51°16.537 2°52.896 8.1 249 14.5 102440 43
2009-09-22 07:18:39 51°16.551 2°52.882 7.7 280 14.5 102440 43
2009-09-22 07:18:44 51°16.565 2°52.869 7.5 249 14.5 102440 42
2009-09-22 07:18:49 51°16.578 2°52.855 8 285 14.5 102440 42
2009-09-22 07:18:54 51°16.592 2°52.842 9.4 20 14.5 102430 43
2009-09-22 07:18:59 51°16.606 2°52.828 8.5 283 14.5 102430 43
2009-09-22 07:19:04 51°16.62 2°52.815 8.9 249 14.5 102430 42
2009-09-22 07:19:09 51°16.634 2°52.801 8.4 277 14.5 102430 42
2009-09-22 07:19:14 51°16.647 2°52.787 6.8 22 14.5 102440 42
2009-09-22 07:19:19 51°16.66 2°52.774 8.8 280 14.5 102440 42
2009-09-22 07:19:24 51°16.674 2°52.76 7.7 250 14.5 102430 44
2009-09-22 07:19:29 51°16.687 2°52.746 7.7 305 14.5 102430 44
2009-09-22 07:19:34 51°16.701 2°52.732 8.4 250 14.5 102440 45
2009-09-22 07:19:39 51°16.715 2°52.718 9.8 279 14.5 102440 45
2009-09-22 07:19:44 51°16.729 2°52.704 8.2 253 14.5 102430 41
2009-09-22 07:19:48 51°16.74 2°52.693 7.7 279 14.5 102430 41
2009-09-22 07:19:54 51°16.756 2°52.677 7.8 247 14.5 102440 42
2009-09-22 07:19:59 51°16.769 2°52.663 8.5 279 14.5 102440 42
2009-09-22 07:20:04 51°16.782 2°52.65 8.1 253 14.5 102430 42
2009-09-22 07:20:09 51°16.796 2°52.637 8.4 282 14.5 102430 42
2009-09-22 07:20:14 51°16.81 2°52.624 7.6 251 14.5 102440 43
2009-09-22 07:20:19 51°16.824 2°52.611 8.4 282 14.5 102440 43
2009-09-22 07:20:24 51°16.838 2°52.599 8.1 251 14.5 102430 44
2009-09-22 07:20:29 51°16.852 2°52.587 8.4 281 14.5 102430 44
2009-09-22 07:20:34 51°16.866 2°52.575 8.1 20 14.6 102440 42
2009-09-22 07:20:39 51°16.88 2°52.563 8.7 284 14.6 102440 42
2009-09-22 07:20:44 51°16.894 2°52.551 7.5 252 14.5 102430 43
2009-09-22 07:20:49 51°16.908 2°52.539 8.7 282 14.5 102430 43
2009-09-22 07:20:54 51°16.922 2°52.528 8.8 256 14.6 102440 43
2009-09-22 07:20:59 51°16.937 2°52.516 8.5 280 14.6 102440 43
2009-09-22 07:21:04 51°16.951 2°52.505 8.3 255 14.6 102430 42
2009-09-22 07:21:09 51°16.965 2°52.494 9 281 14.6 102430 42
2009-09-22 07:21:14 51°16.979 2°52.483 7.3 255 14.6 102440 42
2009-09-22 07:21:19 51°16.992 2°52.471 7 280 14.6 102440 42
2009-09-22 07:21:24 51°17.006 2°52.46 7.8 253 14.6 102450 44
2009-09-22 07:21:29 51°17.02 2°52.449 8.2 304 14.6 102450 44
2009-09-22 07:21:34 51°17.034 2°52.437 7.1 255 14.6 102440 44
2009-09-22 07:21:39 51°17.048 2°52.426 8.2 285 14.6 102440 44
2009-09-22 07:21:44 51°17.063 2°52.415 7.2 254 14.6 102440 43
2009-09-22 07:21:49 51°17.077 2°52.404 7.8 286 14.6 102440 43
2009-09-22 07:21:54 51°17.091 2°52.393 8.5 253 14.6 102430 44
2009-09-22 07:21:59 51°17.106 2°52.382 9 282 14.6 102430 44
2009-09-22 07:22:04 51°17.12 2°52.371 8.1 255 14.6 102440 44
2009-09-22 07:22:09 51°17.134 2°52.36 9.4 280 14.6 102440 44
2009-09-22 07:22:14 51°17.148 2°52.349 8.5 256 14.6 102430 44
2009-09-22 07:22:19 51°17.162 2°52.338 8.5 283 14.6 102430 44
2009-09-22 07:22:24 51°17.177 2°52.327 8.7 256 14.6 102430 42
2009-09-22 07:22:29 51°17.191 2°52.316 8.1 284 14.6 102430 42
2009-09-22 07:22:34 51°17.205 2°52.305 7.5 253 14.6 102440 45
2009-09-22 07:22:39 51°17.22 2°52.295 7.5 279 14.6 102440 45
2009-09-22 07:22:44 51°17.234 2°52.283 6.9 255 14.6 102430 44
2009-09-22 07:22:49 51°17.249 2°52.273 9.1 279 14.6 102430 44
2009-09-22 07:22:54 51°17.262 2°52.262 6.7 256 14.6 102440 44
2009-09-22 07:22:59 51°17.277 2°52.254 6 304 14.6 102440 44
2009-09-22 07:23:04 51°17.292 2°52.246 7.4 254 14.6 102430 44
2009-09-22 07:23:09 51°17.307 2°52.239 5 279 14.6 102430 44
2009-09-22 07:23:14 51°17.322 2°52.234 6.7 260 14.6 102430 44
2009-09-22 07:23:19 51°17.337 2°52.228 5.9 309 14.6 102430 44
2009-09-22 07:23:24 51°17.352 2°52.224 4.5 263 14.6 102430 42
2009-09-22 07:23:29 51°17.367 2°52.218 4.3 307 14.6 102430 42
2009-09-22 07:23:34 51°17.383 2°52.215 3.9 264 14.6 102440 43
2009-09-22 07:23:39 51°17.398 2°52.211 4.2 278 14.6 102440 43
2009-09-22 07:23:44 51°17.413 2°52.208 4.7 266 14.6 102440 42
2009-09-22 07:23:49 51°17.429 2°52.205 3.9 309 14.6 102440 42
2009-09-22 07:23:54 51°17.444 2°52.202 3.8 254 14.6 102430 45
2009-09-22 07:23:59 51°17.459 2°52.199 3.9 279 14.6 102430 45
2009-09-22 07:24:04 51°17.475 2°52.197 3.3 261 14.6 102440 41
2009-09-22 07:24:09 51°17.49 2°52.194 5.4 285 14.6 102440 41
2009-09-22 07:24:14 51°17.505 2°52.192 4.6 260 14.6 102440 45
2009-09-22 07:24:19 51°17.521 2°52.189 3.8 279 14.6 102440 45
2009-09-22 07:24:24 51°17.536 2°52.187 3.6 260 14.6 102440 45
2009-09-22 07:24:29 51°17.552 2°52.184 4.7 284 14.6 102440 45
2009-09-22 07:24:34 51°17.567 2°52.182 5 262 14.7 102430 45
2009-09-22 07:24:39 51°17.583 2°52.18 4.9 284 14.7 102430 45
2009-09-22 07:24:44 51°17.598 2°52.179 5 268 14.7 102440 42
2009-09-22 07:24:49 51°17.614 2°52.176 5.5 82 14.7 102440 42
2009-09-22 07:24:54 51°17.629 2°52.175 4.9 257 14.7 102440 42
2009-09-22 07:24:59 51°17.645 2°52.173 5 279 14.7 102440 42
2009-09-22 07:25:04 51°17.66 2°52.171 4.2 267 14.7 102440 43
2009-09-22 07:25:09 51°17.676 2°52.168 3.7 279 14.7 102440 43
2009-09-22 07:25:14 51°17.691 2°52.166 4.3 268 14.7 102440 41
2009-09-22 07:25:19 51°17.707 2°52.164 4.2 306 14.7 102440 41
2009-09-22 07:25:24 51°17.723 2°52.161 3.2 262 14.6 102430 43
2009-09-22 07:25:29 51°17.738 2°52.159 5 277 14.6 102430 43
2009-09-22 07:25:34 51°17.754 2°52.157 4 264 14.6 102440 45
2009-09-22 07:25:39 51°17.769 2°52.154 3.1 282 14.6 102440 45
2009-09-22 07:25:44 51°17.784 2°52.152 5.5 262 14.6 102440 45
2009-09-22 07:25:48 51°17.796 2°52.15 4.5 283 14.6 102440 45
2009-09-22 07:25:54 51°17.815 2°52.148 3.4 263 14.6 102440 41
2009-09-22 07:25:59 51°17.831 2°52.145 5.6 278 14.6 102440 41
2009-09-22 07:26:04 51°17.846 2°52.142 4.4 263 14.7 102440 43
2009-09-22 07:26:09 51°17.861 2°52.139 4.2 308 14.7 102440 43
2009-09-22 07:26:14 51°17.877 2°52.138 4.5 260 14.7 102440 45
2009-09-22 07:26:19 51°17.892 2°52.134 5.2 279 14.7 102440 45
2009-09-22 07:26:24 51°17.908 2°52.131 3.9 264 14.7 102430 41
2009-09-22 07:26:29 51°17.923 2°52.129 3.9 285 14.7 102430 41
2009-09-22 07:26:34 51°17.938 2°52.126 5.6 259 14.7 102440 42
2009-09-22 07:26:39 51°17.954 2°52.123 3.8 304 14.7 102440 42
2009-09-22 07:26:44 51°17.969 2°52.12 4.7 265 14.7 102440 41
2009-09-22 07:26:49 51°17.984 2°52.117 3.5 281 14.7 102440 41
2009-09-22 07:26:54 51°18 2°52.114 5.2 261 14.7 102440 45
2009-09-22 07:26:59 51°18.015 2°52.111 6 280 14.7 102440 45
2009-09-22 07:27:04 51°18.03 2°52.107 3.5 264 14.7 102440 41
2009-09-22 07:27:09 51°18.045 2°52.104 3.3 284 14.7 102440 41
2009-09-22 07:27:14 51°18.061 2°52.1 3.7 264 14.7 102440 44
2009-09-22 07:27:19 51°18.076 2°52.097 4.4 307 14.7 102440 44
2009-09-22 07:27:24 51°18.092 2°52.094 4 257 14.7 102430 42
2009-09-22 07:27:29 51°18.107 2°52.091 6.2 283 14.7 102430 42
2009-09-22 07:27:34 51°18.123 2°52.088 5.1 259 14.7 102440 45
2009-09-22 07:27:39 51°18.138 2°52.084 5.7 284 14.7 102440 45
2009-09-22 07:27:44 51°18.153 2°52.081 6.2 260 14.7 102430 40
2009-09-22 07:27:49 51°18.169 2°52.079 3.5 280 14.7 102430 40
2009-09-22 07:27:54 51°18.184 2°52.075 3.7 264 14.7 102430 42
2009-09-22 07:27:59 51°18.199 2°52.073 4 280 14.7 102430 42
2009-09-22 07:28:04 51°18.215 2°52.07 4.5 259 14.7 102440 41
2009-09-22 07:28:09 51°18.23 2°52.067 4.6 284 14.7 102440 41
2009-09-22 07:28:14 51°18.245 2°52.064 2.8 263 14.7 102430 46
2009-09-22 07:28:19 51°18.26 2°52.062 4.7 283 14.7 102430 46
2009-09-22 07:28:24 51°18.276 2°52.059 5.2 259 14.7 102440 41
2009-09-22 07:28:29 51°18.291 2°52.055 5.3 307 14.7 102440 41
2009-09-22 07:28:34 51°18.307 2°52.053 7 255 14.8 102440 45
2009-09-22 07:28:39 51°18.322 2°52.05 7 278 14.8 102440 45
2009-09-22 07:28:44 51°18.338 2°52.046 5.3 261 14.8 102440 45
2009-09-22 07:28:49 51°18.353 2°52.043 5.7 278 14.8 102440 45
2009-09-22 07:28:54 51°18.369 2°52.04 5.8 259 14.8 102440 43
2009-09-22 07:28:59 51°18.384 2°52.037 5.9 281 14.8 102440 43
2009-09-22 07:29:04 51°18.399 2°52.034 6.3 252 14.8 102430 42
2009-09-22 07:29:09 51°18.415 2°52.031 7.1 279 14.8 102430 42
2009-09-22 07:29:14 51°18.43 2°52.027 6.9 260 14.9 102430 42
2009-09-22 07:29:19 51°18.446 2°52.023 6.4 307 14.9 102430 42
2009-09-22 07:29:24 51°18.461 2°52.02 8.3 259 14.9 102440 45
2009-09-22 07:29:29 51°18.476 2°52.016 6.4 278 14.9 102440 45
2009-09-22 07:29:34 51°18.492 2°52.013 7.2 259 14.9 102440 42
2009-09-22 07:29:39 51°18.507 2°52.009 6 278 14.9 102440 42
2009-09-22 07:29:44 51°18.523 2°52.005 4.9 262 14.9 102440 43
2009-09-22 07:29:49 51°18.538 2°52.002 5.6 282 14.9 102440 43
2009-09-22 07:29:54 51°18.553 2°51.997 6.8 253 14.9 102440 43
2009-09-22 07:29:59 51°18.568 2°51.994 7.2 280 14.9 102440 43
2009-09-22 07:30:04 51°18.584 2°51.99 7.5 254 14.9 102440 45
2009-09-22 07:30:09 51°18.6 2°51.987 7.1 285 14.9 102440 45
2009-09-22 07:30:14 51°18.615 2°51.983 6.9 257 14.9 102450 45
2009-09-22 07:30:19 51°18.631 2°51.979 5.6 286 14.9 102450 45
2009-09-22 07:30:24 51°18.646 2°51.976 6.5 253 14.9 102440 41
2009-09-22 07:30:28 51°18.659 2°51.973 8.1 282 14.9 102440 41
2009-09-22 07:30:34 51°18.677 2°51.969 8.8 257 15 102440 45
2009-09-22 07:30:39 51°18.693 2°51.965 8.1 283 15 102440 45
2009-09-22 07:30:44 51°18.708 2°51.96 8.7 255 15 102440 42
2009-09-22 07:30:49 51°18.724 2°51.957 9.1 303 15 102440 42
2009-09-22 07:30:54 51°18.739 2°51.953 7.6 258 15 102430 43
2009-09-22 07:30:59 51°18.755 2°51.95 7.9 285 15 102430 43
2009-09-22 07:31:04 51°18.77 2°51.945 7.3 261 15 102440 45
2009-09-22 07:31:09 51°18.786 2°51.942 6.4 282 15 102440 45
2009-09-22 07:31:14 51°18.801 2°51.937 5.7 262 15 102440 43
2009-09-22 07:31:19 51°18.816 2°51.934 6.6 307 15 102440 43
2009-09-22 07:31:24 51°18.832 2°51.93 6.4 259 15 102440 44
2009-09-22 07:31:29 51°18.847 2°51.926 6.9 280 15 102440 44
2009-09-22 07:31:34 51°18.862 2°51.923 9.3 258 15 102440 44
2009-09-22 07:31:39 51°18.878 2°51.919 8.8 284 15 102440 44
2009-09-22 07:31:44 51°18.893 2°51.915 8.6 257 15 102440 45
2009-09-22 07:31:49 51°18.908 2°51.911 6.9 281 15 102440 45
2009-09-22 07:31:54 51°18.924 2°51.908 7.4 260 15 102440 43
2009-09-22 07:31:59 51°18.939 2°51.904 8.3 281 15 102440 43
2009-09-22 07:32:04 51°18.954 2°51.9 6.1 261 15.1 102450 44
2009-09-22 07:32:09 51°18.969 2°51.897 4.1 309 15.1 102450 44
2009-09-22 07:32:14 51°18.985 2°51.894 6.7 260 15.1 102440 43
2009-09-22 07:32:19 51°19 2°51.89 6.1 306 15.1 102440 43
2009-09-22 07:32:24 51°19.016 2°51.886 8 259 15 102440 42
2009-09-22 07:32:29 51°19.031 2°51.882 5.9 303 15 102440 42
2009-09-22 07:32:34 51°19.047 2°51.879 6.1 253 15.1 102440 45
2009-09-22 07:32:39 51°19.062 2°51.876 6.9 280 15.1 102440 45
2009-09-22 07:32:44 51°19.077 2°51.872 7.6 260 15.1 102440 46
2009-09-22 07:32:49 51°19.093 2°51.869 6.3 284 15.1 102440 46
2009-09-22 07:32:54 51°19.108 2°51.865 6.2 261 15.1 102440 44
2009-09-22 07:32:59 51°19.123 2°51.861 7.8 279 15.1 102440 44
2009-09-22 07:33:04 51°19.139 2°51.858 7.2 260 15.1 102440 43
2009-09-22 07:33:09 51°19.154 2°51.855 6.8 286 15.1 102440 43
2009-09-22 07:33:14 51°19.169 2°51.851 8.7 255 15.1 102440 42
2009-09-22 07:33:19 51°19.184 2°51.848 4.9 285 15.1 102440 42
2009-09-22 07:33:24 51°19.2 2°51.844 5.5 261 15.1 102440 44
2009-09-22 07:33:29 51°19.215 2°51.841 6.3 278 15.1 102440 44
2009-09-22 07:33:34 51°19.23 2°51.837 7.9 257 15.1 102440 44
2009-09-22 07:33:39 51°19.246 2°51.834 6.9 279 15.1 102440 44
2009-09-22 07:33:44 51°19.261 2°51.829 6.9 255 15.1 102450 45
2009-09-22 07:33:49 51°19.276 2°51.826 6.3 285 15.1 102450 45
2009-09-22 07:33:54 51°19.291 2°51.822 7.5 256 15.2 102440 44
2009-09-22 07:33:59 51°19.306 2°51.819 6.7 307 15.2 102440 44
2009-09-22 07:34:04 51°19.322 2°51.816 7.6 252 15.2 102440 46
2009-09-22 07:34:09 51°19.337 2°51.811 7.3 284 15.2 102440 46
2009-09-22 07:34:14 51°19.352 2°51.809 7.7 255 15.2 102450 43
2009-09-22 07:34:19 51°19.368 2°51.804 7.2 309 15.2 102450 43
2009-09-22 07:34:24 51°19.383 2°51.801 7.3 254 15.2 102440 43
2009-09-22 07:34:29 51°19.398 2°51.798 8.1 279 15.2 102440 43
2009-09-22 07:34:34 51°19.414 2°51.795 8 257 15.2 102440 46
2009-09-22 07:34:39 51°19.429 2°51.791 8.4 283 15.2 102440 46
2009-09-22 07:34:44 51°19.444 2°51.788 8.9 257 15.2 102450 43
2009-09-22 07:34:49 51°19.459 2°51.784 7.1 285 15.2 102450 43
2009-09-22 07:34:54 51°19.474 2°51.781 6.9 255 15.3 102440 42
2009-09-22 07:34:59 51°19.49 2°51.778 8.3 283 15.3 102440 42
2009-09-22 07:35:04 51°19.505 2°51.774 9.9 259 15.3 102440 43
2009-09-22 07:35:09 51°19.52 2°51.77 7.7 284 15.3 102440 43
2009-09-22 07:35:14 51°19.536 2°51.767 7.7 255 15.3 102450 45
2009-09-22 07:35:19 51°19.551 2°51.763 6.7 281 15.3 102450 45
2009-09-22 07:35:24 51°19.566 2°51.759 7.6 259 15.3 102440 45
2009-09-22 07:35:29 51°19.581 2°51.756 6.4 302 15.3 102440 45
2009-09-22 07:35:34 51°19.597 2°51.752 8.6 255 15.3 102450 43
2009-09-22 07:35:39 51°19.612 2°51.748 7.2 280 15.3 102450 43
2009-09-22 07:35:44 51°19.627 2°51.744 8.2 252 15.3 102440 44
2009-09-22 07:35:48 51°19.64 2°51.742 8.9 285 15.3 102440 44
2009-09-22 07:35:54 51°19.658 2°51.739 8.1 258 15.3 102440 44
2009-09-22 07:35:59 51°19.673 2°51.735 7.7 283 15.3 102440 44
2009-09-22 07:36:04 51°19.688 2°51.732 8.3 256 15.3 102440 45
2009-09-22 07:36:09 51°19.704 2°51.729 9.2 278 15.3 102440 45
2009-09-22 07:36:14 51°19.719 2°51.727 8.2 257 15.3 102450 43
2009-09-22 07:36:19 51°19.734 2°51.724 7.5 307 15.3 102450 43
2009-09-22 07:36:24 51°19.75 2°51.722 6.5 262 15.3 102450 45
2009-09-22 07:36:29 51°19.765 2°51.72 7.2 284 15.3 102450 45
2009-09-22 07:36:34 51°19.781 2°51.717 7.2 260 15.3 102450 45
2009-09-22 07:36:39 51°19.796 2°51.714 6.3 308 15.3 102450 45
2009-09-22 07:36:44 51°19.812 2°51.713 6.1 258 15.3 102450 43
2009-09-22 07:36:49 51°19.827 2°51.711 7.5 285 15.3 102450 43
2009-09-22 07:36:54 51°19.843 2°51.709 7.3 261 15.4 102440 44
2009-09-22 07:36:59 51°19.858 2°51.707 5.8 281 15.4 102440 44
2009-09-22 07:37:04 51°19.874 2°51.705 4.6 263 15.4 102450 45
2009-09-22 07:37:09 51°19.889 2°51.703 5.7 -999 15.4 102450 45
2009-09-22 07:37:14 51°19.905 2°51.701 4.7 264 15.4 102450 43
2009-09-22 07:37:19 51°19.92 2°51.699 6.1 283 15.4 102450 43
2009-09-22 07:37:24 51°19.935 2°51.696 7.8 260 15.4 102450 44
2009-09-22 07:37:29 51°19.951 2°51.694 5.1 309 15.4 102450 44
2009-09-22 07:37:34 51°19.966 2°51.692 4.4 265 15.4 102440 46
2009-09-22 07:37:39 51°19.982 2°51.688 4.3 285 15.4 102440 46
2009-09-22 07:37:44 51°19.998 2°51.687 6.7 260 15.4 102440 45
2009-09-22 07:37:49 51°20.013 2°51.684 5.2 301 15.4 102440 45
2009-09-22 07:37:54 51°20.028 2°51.682 6.5 260 15.4 102440 46
2009-09-22 07:37:59 51°20.044 2°51.679 6 278 15.4 102440 46
2009-09-22 07:38:04 51°20.059 2°51.676 4.8 264 15.4 102440 42
2009-09-22 07:38:09 51°20.074 2°51.673 5.7 308 15.4 102440 42
2009-09-22 07:38:14 51°20.09 2°51.671 6.4 258 15.4 102440 45
2009-09-22 07:38:19 51°20.105 2°51.668 5 308 15.4 102440 45
2009-09-22 07:38:24 51°20.121 2°51.666 4.6 266 15.4 102440 45
2009-09-22 07:38:29 51°20.136 2°51.663 6 284 15.4 102440 45
2009-09-22 07:38:34 51°20.152 2°51.662 6.3 258 15.4 102440 46
2009-09-22 07:38:39 51°20.167 2°51.659 7.2 305 15.4 102440 46
2009-09-22 07:38:44 51°20.183 2°51.657 6 261 15.4 102430 46
2009-09-22 07:38:49 51°20.198 2°51.655 6.6 279 15.4 102430 46
2009-09-22 07:38:54 51°20.214 2°51.653 6.4 256 15.4 102430 43
2009-09-22 07:38:59 51°20.229 2°51.651 7.5 281 15.4 102430 43
2009-09-22 07:39:04 51°20.244 2°51.649 5.7 255 15.4 102440 42
2009-09-22 07:39:09 51°20.26 2°51.647 6.7 279 15.4 102440 42
2009-09-22 07:39:14 51°20.275 2°51.644 7.6 259 15.4 102430 44
2009-09-22 07:39:19 51°20.29 2°51.642 7.5 286 15.4 102430 44
2009-09-22 07:39:24 51°20.306 2°51.64 7.8 260 15.4 102430 44
2009-09-22 07:39:29 51°20.321 2°51.637 6.6 304 15.4 102430 44
2009-09-22 07:39:34 51°20.337 2°51.635 5.5 261 15.4 102430 45
2009-09-22 07:39:39 51°20.352 2°51.633 7.2 281 15.4 102430 45
2009-09-22 07:39:44 51°20.368 2°51.631 7.3 260 15.4 102430 42
2009-09-22 07:39:49 51°20.384 2°51.629 5.8 308 15.4 102430 42
2009-09-22 07:39:54 51°20.4 2°51.627 5.7 261 15.4 102430 45
2009-09-22 07:39:59 51°20.415 2°51.625 6.3 283 15.4 102430 45
2009-09-22 07:40:04 51°20.431 2°51.623 7.4 256 15.4 102430 42
2009-09-22 07:40:09 51°20.447 2°51.621 8.2 280 15.4 102430 42
2009-09-22 07:40:14 51°20.463 2°51.619 7.7 258 15.4 102440 43
2009-09-22 07:40:19 51°20.479 2°51.617 6.4 304 15.4 102440 43
2009-09-22 07:40:24 51°20.494 2°51.615 6 260 15.4 102430 43
2009-09-22 07:40:29 51°20.51 2°51.612 4.2 278 15.4 102430 43
2009-09-22 07:40:34 51°20.526 2°51.611 7.3 260 15.4 102430 43
2009-09-22 07:40:39 51°20.541 2°51.608 5.9 304 15.4 102430 43
2009-09-22 07:40:44 51°20.557 2°51.606 6.4 255 15.5 102440 43
2009-09-22 07:40:49 51°20.572 2°51.604 6.2 280 15.5 102440 43
2009-09-22 07:40:54 51°20.588 2°51.601 7.4 250 15.5 102430 43
2009-09-22 07:40:59 51°20.604 2°51.599 7.8 303 15.5 102430 43
2009-09-22 07:41:04 51°20.619 2°51.597 8.2 257 15.5 102430 42
2009-09-22 07:41:09 51°20.635 2°51.594 7.5 -999 15.5 102430 42
2009-09-22 07:41:14 51°20.651 2°51.592 6.7 258 15.5 102440 45
2009-09-22 07:41:19 51°20.666 2°51.59 7 284 15.5 102440 45
2009-09-22 07:41:24 51°20.682 2°51.588 5.7 260 15.5 102430 44
2009-09-22 07:41:29 51°20.698 2°51.587 6.4 309 15.5 102430 44
2009-09-22 07:41:34 51°20.713 2°51.584 7 261 15.5 102440 45
2009-09-22 07:41:39 51°20.729 2°51.583 7.4 284 15.5 102440 45
2009-09-22 07:41:44 51°20.744 2°51.58 7.5 260 15.5 102440 46
2009-09-22 07:41:49 51°20.76 2°51.578 8.5 307 15.5 102440 46
2009-09-22 07:41:54 51°20.775 2°51.576 6.8 255 15.5 102430 44
2009-09-22 07:41:59 51°20.791 2°51.574 9.3 285 15.5 102430 44
2009-09-22 07:42:04 51°20.806 2°51.573 9.5 260 15.5 102440 43
2009-09-22 07:42:09 51°20.822 2°51.571 8.3 282 15.5 102440 43
2009-09-22 07:42:14 51°20.838 2°51.569 7.4 250 15.5 102440 43
2009-09-22 07:42:19 51°20.853 2°51.567 7.1 284 15.5 102440 43
2009-09-22 07:42:24 51°20.869 2°51.565 7.5 251 15.5 102440 44
2009-09-22 07:42:29 51°20.884 2°51.562 8.4 309 15.5 102440 44
2009-09-22 07:42:34 51°20.9 2°51.561 8.8 252 15.5 102430 43
2009-09-22 07:42:39 51°20.915 2°51.559 8.2 282 15.5 102430 43
2009-09-22 07:42:44 51°20.931 2°51.557 7.8 23 15.5 102430 45
2009-09-22 07:42:49 51°20.946 2°51.555 8 285 15.5 102430 45
2009-09-22 07:42:54 51°20.961 2°51.553 8.9 249 15.5 102440 43
2009-09-22 07:42:59 51°20.977 2°51.551 11.5 277 15.5 102440 43
2009-09-22 07:43:04 51°20.992 2°51.549 9.2 248 15.5 102440 45
2009-09-22 07:43:09 51°21.007 2°51.547 10.6 -999 15.5 102440 45
2009-09-22 07:43:14 51°21.023 2°51.544 10.6 250 15.6 102430 44
2009-09-22 07:43:19 51°21.038 2°51.543 12.4 304 15.6 102430 44
2009-09-22 07:43:24 51°21.053 2°51.541 12.9 250 15.6 102430 44
2009-09-22 07:43:29 51°21.069 2°51.539 10.8 286 15.6 102430 44
2009-09-22 07:43:34 51°21.084 2°51.537 11.4 249 15.6 102430 45
2009-09-22 07:43:39 51°21.099 2°51.536 11.5 303 15.6 102430 45
2009-09-22 07:43:44 51°21.114 2°51.533 11.6 249 15.6 102440 42
2009-09-22 07:43:48 51°21.126 2°51.532 12.2 287 15.6 102440 42
2009-09-22 07:43:54 51°21.145 2°51.529 9.5 249 15.6 102430 43
2009-09-22 07:43:59 51°21.16 2°51.528 12.8 282 15.6 102430 43
2009-09-22 07:44:04 51°21.175 2°51.525 11.3 21 15.6 102430 45
2009-09-22 07:44:09 51°21.19 2°51.524 11.5 304 15.6 102430 45
2009-09-22 07:44:14 51°21.205 2°51.521 14.1 249 15.6 102430 44
2009-09-22 07:44:19 51°21.22 2°51.52 14.8 281 15.6 102430 44
2009-09-22 07:44:24 51°21.235 2°51.517 13.2 252 15.6 102420 45
2009-09-22 07:44:29 51°21.25 2°51.515 12.8 282 15.6 102420 45
2009-09-22 07:44:34 51°21.266 2°51.513 12.9 250 15.6 102420 43
2009-09-22 07:44:39 51°21.281 2°51.511 10.2 310 15.6 102420 43
2009-09-22 07:44:44 51°21.296 2°51.509 12.9 248 15.6 102420 44
2009-09-22 07:44:49 51°21.311 2°51.507 13.2 310 15.6 102420 44
2009-09-22 07:44:54 51°21.326 2°51.505 13.8 21 15.6 102430 44
2009-09-22 07:44:59 51°21.341 2°51.503 11.9 281 15.6 102430 44
2009-09-22 07:45:04 51°21.356 2°51.5 12.6 22 15.7 102420 45
2009-09-22 07:45:09 51°21.371 2°51.498 11.6 -999 15.7 102420 45
2009-09-22 07:45:14 51°21.386 2°51.495 12.3 252 15.7 102420 44
2009-09-22 07:45:19 51°21.401 2°51.493 13.2 307 15.7 102420 44
2009-09-22 07:45:24 51°21.416 2°51.491 10.6 249 15.7 102410 43
2009-09-22 07:45:29 51°21.431 2°51.488 11.3 280 15.7 102410 43
2009-09-22 07:45:34 51°21.446 2°51.487 12.8 248 15.7 102420 45
2009-09-22 07:45:39 51°21.461 2°51.484 11 305 15.7 102420 45
2009-09-22 07:45:44 51°21.476 2°51.483 11.3 20 15.7 102430 43
2009-09-22 07:45:49 51°21.491 2°51.479 9.8 286 15.7 102430 43
2009-09-22 07:45:54 51°21.506 2°51.478 10.8 252 15.8 102430 45
2009-09-22 07:45:59 51°21.521 2°51.475 10.9 279 15.8 102430 45
2009-09-22 07:46:04 51°21.536 2°51.473 11.8 251 15.8 102420 45
2009-09-22 07:46:09 51°21.552 2°51.47 14.2 283 15.8 102420 45
2009-09-22 07:46:14 51°21.567 2°51.469 13.4 254 15.8 102420 45
2009-09-22 07:46:19 51°21.582 2°51.466 11.6 279 15.8 102420 45
2009-09-22 07:46:24 51°21.597 2°51.464 11.4 250 15.8 102420 44
2009-09-22 07:46:29 51°21.612 2°51.461 11.2 304 15.8 102420 44
2009-09-22 07:46:34 51°21.627 2°51.459 10.7 246 15.9 102410 45
2009-09-22 07:46:39 51°21.643 2°51.457 10.7 278 15.9 102410 45
2009-09-22 07:46:44 51°21.658 2°51.455 12.2 250 15.9 102430 44
2009-09-22 07:46:48 51°21.67 2°51.453 11.2 308 15.9 102430 44
2009-09-22 07:46:54 51°21.688 2°51.451 11 21 15.9 102430 45
2009-09-22 07:46:59 51°21.704 2°51.449 11.2 301 15.9 102430 45
2009-09-22 07:47:04 51°21.719 2°51.447 10.5 249 15.9 102410 44
2009-09-22 07:47:09 51°21.734 2°51.446 10.9 283 15.9 102410 44
2009-09-22 07:47:14 51°21.75 2°51.443 11.3 21 16 102440 44
2009-09-22 07:47:19 51°21.765 2°51.442 12.3 277 16 102440 44
2009-09-22 07:47:24 51°21.78 2°51.44 12.9 249 16 102420 43
2009-09-22 07:47:29 51°21.795 2°51.437 13.5 282 16 102420 43
2009-09-22 07:47:34 51°21.81 2°51.435 12.6 251 16 102420 43
2009-09-22 07:47:39 51°21.826 2°51.434 12.4 306 16 102420 43
2009-09-22 07:47:44 51°21.841 2°51.431 11.3 21 16.1 102410 44
2009-09-22 07:47:49 51°21.856 2°51.43 10.1 283 16.1 102410 44
2009-09-22 07:47:54 51°21.871 2°51.428 12.6 252 16 102420 44
2009-09-22 07:47:59 51°21.887 2°51.425 11.5 307 16 102420 44
2009-09-22 07:48:04 51°21.902 2°51.423 12.2 23 16 102420 45
2009-09-22 07:48:09 51°21.917 2°51.42 13.3 285 16 102420 45
2009-09-22 07:48:14 51°21.932 2°51.418 14.1 249 16.1 102430 45
2009-09-22 07:48:19 51°21.947 2°51.416 12 285 16.1 102430 45
2009-09-22 07:48:24 51°21.963 2°51.413 10.7 251 16.1 102420 44
2009-09-22 07:48:29 51°21.978 2°51.412 14.1 307 16.1 102420 44
2009-09-22 07:48:34 51°21.993 2°51.41 11.7 251 16.1 102410 43
2009-09-22 07:48:39 51°22.009 2°51.408 12.2 281 16.1 102410 43
2009-09-22 07:48:44 51°22.024 2°51.406 11.1 250 16.1 102410 44
2009-09-22 07:48:49 51°22.04 2°51.404 11.5 303 16.1 102410 44
2009-09-22 07:48:54 51°22.055 2°51.401 11.6 248 16.1 102400 44
2009-09-22 07:48:59 51°22.071 2°51.399 13.3 282 16.1 102400 44
2009-09-22 07:49:04 51°22.086 2°51.396 13.1 244 16.1 102430 42
2009-09-22 07:49:09 51°22.101 2°51.394 12.5 282 16.1 102430 42
2009-09-22 07:49:14 51°22.117 2°51.392 12.9 243 16.1 102400 45
2009-09-22 07:49:19 51°22.133 2°51.391 12 303 16.1 102400 45
2009-09-22 07:49:24 51°22.148 2°51.389 12.4 23 16.2 102420 44
2009-09-22 07:49:29 51°22.163 2°51.386 14.7 285 16.2 102420 44
2009-09-22 07:49:34 51°22.179 2°51.384 11.3 245 16.2 102410 43
2009-09-22 07:49:39 51°22.194 2°51.382 12.8 307 16.2 102410 43
2009-09-22 07:49:44 51°22.209 2°51.381 15.6 22 16.2 102430 44
2009-09-22 07:49:49 51°22.225 2°51.378 13.1 283 16.2 102430 44
2009-09-22 07:49:54 51°22.241 2°51.377 12.7 245 16.2 102430 43
2009-09-22 07:49:59 51°22.256 2°51.374 13.8 302 16.2 102430 43
2009-09-22 07:50:04 51°22.272 2°51.372 12.1 246 16.2 102420 44
2009-09-22 07:50:09 51°22.288 2°51.371 12.1 285 16.2 102420 44
2009-09-22 07:50:14 51°22.303 2°51.37 12.7 24 16.2 102410 43
2009-09-22 07:50:19 51°22.319 2°51.367 11.8 304 16.2 102410 43
2009-09-22 07:50:24 51°22.334 2°51.365 12.9 25 16.2 102420 44
2009-09-22 07:50:29 51°22.35 2°51.364 13.2 304 16.2 102420 44
2009-09-22 07:50:34 51°22.365 2°51.361 10.1 23 16.2 102440 43
2009-09-22 07:50:39 51°22.38 2°51.36 13.6 280 16.2 102440 43
2009-09-22 07:50:44 51°22.396 2°51.359 12 248 16.2 102420 44
2009-09-22 07:50:49 51°22.411 2°51.357 12.8 305 16.2 102420 44
2009-09-22 07:50:54 51°22.426 2°51.356 13.4 247 16.2 102400 44
2009-09-22 07:50:59 51°22.442 2°51.353 11.6 309 16.2 102400 44
2009-09-22 07:51:04 51°22.457 2°51.352 12.1 246 16.2 102430 44
2009-09-22 07:51:08 51°22.47 2°51.351 13.6 309 16.2 102430 44
2009-09-22 07:51:14 51°22.488 2°51.348 10.8 249 16.2 102400 43
2009-09-22 07:51:19 51°22.504 2°51.348 13.7 308 16.2 102400 43
2009-09-22 07:51:24 51°22.519 2°51.346 12.6 250 16.2 102420 44
2009-09-22 07:51:29 51°22.535 2°51.344 10.8 306 16.2 102420 44
2009-09-22 07:51:34 51°22.551 2°51.342 13.1 249 16.2 102420 43
2009-09-22 07:51:39 51°22.566 2°51.341 11.8 305 16.2 102420 43
2009-09-22 07:51:44 51°22.582 2°51.338 12.2 21 16.2 102410 43
2009-09-22 07:51:48 51°22.594 2°51.336 10.7 307 16.2 102410 43
2009-09-22 07:51:54 51°22.613 2°51.334 9.8 23 16.2 102430 43
2009-09-22 07:51:59 51°22.628 2°51.333 10.1 302 16.2 102430 43
2009-09-22 07:52:04 51°22.644 2°51.33 10.9 245 16.2 102420 44
2009-09-22 07:52:09 51°22.659 2°51.328 11.4 277 16.2 102420 44
2009-09-22 07:52:14 51°22.674 2°51.324 11.2 246 16.2 102440 44
2009-09-22 07:52:19 51°22.689 2°51.324 13.6 308 16.2 102440 44
2009-09-22 07:52:24 51°22.705 2°51.319 9.9 20 16.2 102440 43
2009-09-22 07:52:29 51°22.72 2°51.319 12.5 303 16.2 102440 43
2009-09-22 07:52:34 51°22.735 2°51.315 11.2 22 16.2 102420 42
2009-09-22 07:52:39 51°22.75 2°51.313 12.7 308 16.2 102420 42
2009-09-22 07:52:44 51°22.766 2°51.311 13 246 16.3 102420 44
2009-09-22 07:52:48 51°22.778 2°51.309 11.9 306 16.3 102420 44
2009-09-22 07:52:54 51°22.796 2°51.306 12.7 245 16.3 102410 43
2009-09-22 07:52:59 51°22.812 2°51.303 12.9 307 16.3 102410 43
2009-09-22 07:53:04 51°22.827 2°51.303 11.5 246 16.3 102410 44
2009-09-22 07:53:09 51°22.842 2°51.3 14 307 16.3 102410 44
2009-09-22 07:53:14 51°22.858 2°51.299 12.3 247 16.2 102410 44
2009-09-22 07:53:19 51°22.873 2°51.296 13.6 305 16.2 102410 44
2009-09-22 07:53:24 51°22.889 2°51.295 13.8 21 16.3 102410 43
2009-09-22 07:53:29 51°22.904 2°51.293 12.5 304 16.3 102410 43
2009-09-22 07:53:34 51°22.92 2°51.29 11.5 248 16.3 102410 43
2009-09-22 07:53:39 51°22.935 2°51.289 10.8 302 16.3 102410 43
2009-09-22 07:53:44 51°22.95 2°51.285 11 24 16.3 102410 44
2009-09-22 07:53:48 51°22.963 2°51.286 12.1 305 16.3 102410 44
2009-09-22 07:53:54 51°22.981 2°51.281 12.1 249 16.2 102410 42
2009-09-22 07:53:59 51°22.996 2°51.282 12.6 310 16.2 102410 42
2009-09-22 07:54:04 51°23.012 2°51.278 11.1 250 16.3 102420 44
2009-09-22 07:54:09 51°23.027 2°51.278 13.7 303 16.3 102420 44
2009-09-22 07:54:14 51°23.043 2°51.275 10.4 247 16.2 102420 42
2009-09-22 07:54:19 51°23.058 2°51.274 13 305 16.2 102420 42
2009-09-22 07:54:24 51°23.073 2°51.271 9.7 251 16.3 102420 42
2009-09-22 07:54:28 51°23.086 2°51.271 11.3 304 16.3 102420 42
2009-09-22 07:54:34 51°23.104 2°51.269 11.1 251 16.2 102410 44
2009-09-22 07:54:39 51°23.119 2°51.268 13.8 300 16.2 102410 44
2009-09-22 07:54:44 51°23.134 2°51.267 14 249 16.3 102410 43
2009-09-22 07:54:49 51°23.149 2°51.265 12.8 305 16.3 102410 43
2009-09-22 07:54:54 51°23.165 2°51.264 10.5 23 16.3 102410 42
2009-09-22 07:54:59 51°23.18 2°51.262 12.5 308 16.3 102410 42
2009-09-22 07:55:04 51°23.195 2°51.26 12.3 246 16.2 102420 42
2009-09-22 07:55:09 51°23.211 2°51.26 13 280 16.2 102420 42
2009-09-22 07:55:14 51°23.226 2°51.257 14.4 249 16.2 102420 44
2009-09-22 07:55:19 51°23.241 2°51.256 11.4 305 16.2 102420 44
2009-09-22 07:55:24 51°23.257 2°51.255 14.6 248 16.3 102420 43
2009-09-22 07:55:28 51°23.269 2°51.253 13.3 310 16.3 102420 43
2009-09-22 07:55:34 51°23.288 2°51.252 12.2 251 16.3 102410 43
2009-09-22 07:55:39 51°23.303 2°51.251 12.4 306 16.3 102410 43
2009-09-22 07:55:44 51°23.318 2°51.25 12 247 16.3 102420 43
2009-09-22 07:55:49 51°23.333 2°51.247 12.4 308 16.3 102420 43
2009-09-22 07:55:54 51°23.349 2°51.246 14.7 249 16.3 102420 43
2009-09-22 07:55:59 51°23.364 2°51.245 14.3 308 16.3 102420 43
2009-09-22 07:56:04 51°23.379 2°51.243 14.9 250 16.3 102420 42
2009-09-22 07:56:09 51°23.395 2°51.241 11.2 304 16.3 102420 42
2009-09-22 07:56:14 51°23.411 2°51.24 12.8 251 16.3 102420 42
2009-09-22 07:56:19 51°23.426 2°51.238 11 310 16.3 102420 42
2009-09-22 07:56:24 51°23.441 2°51.237 12.4 247 16.3 102420 43
2009-09-22 07:56:28 51°23.454 2°51.235 12.4 304 16.3 102420 43
2009-09-22 07:56:34 51°23.472 2°51.233 9.4 246 16.3 102430 43
2009-09-22 07:56:39 51°23.487 2°51.232 12.9 306 16.3 102430 43
2009-09-22 07:56:44 51°23.503 2°51.229 14.4 246 16.3 102440 42
2009-09-22 07:56:49 51°23.518 2°51.229 13.6 305 16.3 102440 42
2009-09-22 07:56:54 51°23.533 2°51.227 11 249 16.3 102430 43
2009-09-22 07:56:59 51°23.549 2°51.225 14.5 303 16.3 102430 43
2009-09-22 07:57:04 51°23.564 2°51.224 12.5 252 16.3 102440 42
2009-09-22 07:57:09 51°23.58 2°51.223 11.4 303 16.3 102440 42
2009-09-22 07:57:14 51°23.595 2°51.221 12.5 251 16.3 102400 42
2009-09-22 07:57:19 51°23.61 2°51.219 12.6 308 16.3 102400 42
2009-09-22 07:57:24 51°23.626 2°51.218 11.3 246 16.3 102420 43
2009-09-22 07:57:29 51°23.641 2°51.216 12.6 303 16.3 102420 43
2009-09-22 07:57:34 51°23.657 2°51.216 14.8 251 16.3 102420 44
2009-09-22 07:57:39 51°23.672 2°51.213 9.4 300 16.3 102420 44
2009-09-22 07:57:44 51°23.687 2°51.212 12.7 247 16.3 102420 43
2009-09-22 07:57:49 51°23.703 2°51.207 12.1 304 16.3 102420 43
2009-09-22 07:57:54 51°23.717 2°51.208 13.7 248 16.3 102410 43
2009-09-22 07:57:59 51°23.733 2°51.204 10.7 301 16.3 102410 43
2009-09-22 07:58:04 51°23.748 2°51.203 10.5 249 16.3 102420 42
2009-09-22 07:58:09 51°23.763 2°51.2 13.5 282 16.3 102420 42
2009-09-22 07:58:14 51°23.778 2°51.199 11.4 248 16.3 102410 43
2009-09-22 07:58:19 51°23.793 2°51.196 10.4 301 16.3 102410 43
2009-09-22 07:58:24 51°23.808 2°51.195 11.3 250 16.3 102420 42
2009-09-22 07:58:28 51°23.82 2°51.193 13.9 307 16.3 102420 42
2009-09-22 07:58:34 51°23.838 2°51.191 13.9 246 16.3 102390 43
2009-09-22 07:58:39 51°23.854 2°51.189 13.3 306 16.3 102390 43
2009-09-22 07:58:44 51°23.869 2°51.186 10.3 252 16.3 102430 42
2009-09-22 07:58:49 51°23.884 2°51.186 13.3 306 16.3 102430 42
2009-09-22 07:58:54 51°23.899 2°51.182 10.9 251 16.3 102430 43
2009-09-22 07:58:59 51°23.914 2°51.181 11.8 305 16.3 102430 43
2009-09-22 07:59:04 51°23.929 2°51.178 13.2 252 16.3 102420 42
2009-09-22 07:59:09 51°23.944 2°51.176 12.1 309 16.3 102420 42
2009-09-22 07:59:14 51°23.959 2°51.175 12 250 16.3 102410 42
2009-09-22 07:59:19 51°23.974 2°51.174 14.2 307 16.3 102410 42
2009-09-22 07:59:24 51°23.99 2°51.172 11.3 250 16.3 102420 42
2009-09-22 07:59:28 51°24.002 2°51.171 13.1 307 16.3 102420 42
2009-09-22 07:59:34 51°24.02 2°51.168 12.2 255 16.3 102430 43
2009-09-22 07:59:39 51°24.035 2°51.167 13 306 16.3 102430 43
2009-09-22 07:59:44 51°24.051 2°51.164 12.9 253 16.3 102410 41
2009-09-22 07:59:49 51°24.066 2°51.162 13.7 303 16.3 102410 41
2009-09-22 07:59:54 51°24.081 2°51.159 13.7 254 16.3 102430 43
2009-09-22 07:59:59 51°24.096 2°51.159 12.7 304 16.3 102430 43
2009-09-22 08:00:04 51°24.112 2°51.155 12.2 252 16.3 102420 43
2009-09-22 08:00:08 51°24.124 2°51.154 14.7 281 16.3 102420 43
2009-09-22 08:00:14 51°24.142 2°51.152 14.2 253 16.3 102420 43
2009-09-22 08:00:19 51°24.158 2°51.15 14 308 16.3 102420 43
2009-09-22 08:00:24 51°24.173 2°51.149 14.7 250 16.3 102420 43
2009-09-22 08:00:29 51°24.188 2°51.146 11.3 304 16.3 102420 43
2009-09-22 08:00:34 51°24.204 2°51.145 12 251 16.3 102430 43
2009-09-22 08:00:39 51°24.219 2°51.142 11.1 307 16.3 102430 43
2009-09-22 08:00:44 51°24.234 2°51.139 14.2 247 16.3 102430 43
2009-09-22 08:00:49 51°24.25 2°51.14 12.8 306 16.3 102430 43
2009-09-22 08:00:54 51°24.265 2°51.135 11.3 249 16.4 102430 42
2009-09-22 08:00:59 51°24.28 2°51.134 12.2 308 16.4 102430 42
2009-09-22 08:01:04 51°24.295 2°51.132 12.3 249 16.4 102430 43
2009-09-22 08:01:09 51°24.31 2°51.129 12 303 16.4 102430 43
2009-09-22 08:01:14 51°24.325 2°51.129 14 252 16.3 102410 42
2009-09-22 08:01:19 51°24.34 2°51.127 12.3 301 16.3 102410 42
2009-09-22 08:01:24 51°24.355 2°51.126 12.5 250 16.4 102430 43
2009-09-22 08:01:29 51°24.37 2°51.123 10.4 308 16.4 102430 43
2009-09-22 08:01:34 51°24.385 2°51.121 12.3 247 16.4 102420 42
2009-09-22 08:01:39 51°24.401 2°51.119 12.1 309 16.4 102420 42
2009-09-22 08:01:44 51°24.416 2°51.118 14.6 247 16.4 102420 42
2009-09-22 08:01:49 51°24.431 2°51.116 11 307 16.4 102420 42
2009-09-22 08:01:54 51°24.446 2°51.114 14 252 16.4 102420 43
2009-09-22 08:01:59 51°24.461 2°51.113 13 301 16.4 102420 43
2009-09-22 08:02:04 51°24.476 2°51.111 12.9 251 16.3 102400 42
2009-09-22 08:02:09 51°24.491 2°51.109 12.2 306 16.3 102400 42
2009-09-22 08:02:14 51°24.506 2°51.107 13.6 21 16.3 102410 43
2009-09-22 08:02:19 51°24.521 2°51.106 13.1 305 16.3 102410 43
2009-09-22 08:02:24 51°24.536 2°51.104 12.9 249 16.4 102430 42
2009-09-22 08:02:29 51°24.552 2°51.101 10.6 306 16.4 102430 42
2009-09-22 08:02:34 51°24.567 2°51.102 10.9 247 16.3 102410 42
2009-09-22 08:02:39 51°24.582 2°51.099 13.6 309 16.3 102410 42
2009-09-22 08:02:44 51°24.597 2°51.097 13.8 22 16.3 102410 42
2009-09-22 08:02:49 51°24.612 2°51.097 14.1 305 16.3 102410 42
2009-09-22 08:02:54 51°24.627 2°51.093 13.7 251 16.3 102440 42
2009-09-22 08:02:59 51°24.642 2°51.093 14.4 305 16.3 102440 42
2009-09-22 08:03:04 51°24.657 2°51.09 11.9 251 16.3 102410 42
2009-09-22 08:03:09 51°24.672 2°51.088 12.7 301 16.3 102410 42
2009-09-22 08:03:14 51°24.687 2°51.086 11.9 247 16.3 102420 43
2009-09-22 08:03:19 51°24.702 2°51.084 11.5 305 16.3 102420 43
2009-09-22 08:03:24 51°24.717 2°51.082 11.6 248 16.3 102430 43
2009-09-22 08:03:29 51°24.733 2°51.08 11.1 307 16.3 102430 43
2009-09-22 08:03:34 51°24.748 2°51.079 10.9 248 16.3 102420 42
2009-09-22 08:03:39 51°24.763 2°51.075 12.3 305 16.3 102420 42
2009-09-22 08:03:44 51°24.778 2°51.075 12.5 251 16.3 102410 43
2009-09-22 08:03:49 51°24.793 2°51.07 8.8 300 16.3 102410 43
2009-09-22 08:03:54 51°24.808 2°51.071 11.8 248 16.3 102430 43
2009-09-22 08:03:59 51°24.823 2°51.065 11.4 308 16.3 102430 43
2009-09-22 08:04:04 51°24.838 2°51.065 13.5 249 16.3 102410 42
2009-09-22 08:04:09 51°24.853 2°51.062 13.6 305 16.3 102410 42
2009-09-22 08:04:14 51°24.868 2°51.062 13.6 251 16.3 102450 43
2009-09-22 08:04:19 51°24.883 2°51.059 11.8 303 16.3 102450 43
2009-09-22 08:04:24 51°24.898 2°51.057 13.7 246 16.3 102420 43
2009-09-22 08:04:29 51°24.913 2°51.054 12 302 16.3 102420 43
2009-09-22 08:04:34 51°24.928 2°51.052 14.5 248 16.3 102420 43
2009-09-22 08:04:39 51°24.942 2°51.051 14.5 307 16.3 102420 43
2009-09-22 08:04:44 51°24.957 2°51.048 12 251 16.3 102420 42
2009-09-22 08:04:49 51°24.972 2°51.046 11.4 307 16.3 102420 42
2009-09-22 08:04:54 51°24.987 2°51.043 12.2 250 16.3 102410 42
2009-09-22 08:04:59 51°25.002 2°51.042 14.1 306 16.3 102410 42
2009-09-22 08:05:04 51°25.017 2°51.039 12.9 22 16.3 102410 42
2009-09-22 08:05:09 51°25.032 2°51.038 13.5 283 16.3 102410 42
2009-09-22 08:05:14 51°25.047 2°51.036 12.2 249 16.3 102420 42
2009-09-22 08:05:19 51°25.062 2°51.034 12.7 304 16.3 102420 42
2009-09-22 08:05:24 51°25.077 2°51.033 11.5 249 16.3 102430 43
2009-09-22 08:05:29 51°25.092 2°51.03 10.4 307 16.3 102430 43
2009-09-22 08:05:34 51°25.107 2°51.029 11.4 250 16.3 102400 43
2009-09-22 08:05:39 51°25.122 2°51.026 13.9 302 16.3 102400 43
2009-09-22 08:05:44 51°25.137 2°51.026 14.4 251 16.3 102430 42
2009-09-22 08:05:49 51°25.151 2°51.022 11.9 301 16.3 102430 42
2009-09-22 08:05:54 51°25.166 2°51.021 11.8 254 16.3 102420 42
2009-09-22 08:05:59 51°25.181 2°51.019 10.2 305 16.3 102420 42
2009-09-22 08:06:04 51°25.196 2°51.016 13.2 247 16.3 102420 42
2009-09-22 08:06:09 51°25.211 2°51.015 12.5 305 16.3 102420 42
2009-09-22 08:06:14 51°25.226 2°51.01 11.8 251 16.3 102430 43
2009-09-22 08:06:19 51°25.241 2°51.009 12.3 305 16.3 102430 43
2009-09-22 08:06:24 51°25.256 2°51.006 12.5 248 16.3 102430 42
2009-09-22 08:06:29 51°25.27 2°51.004 12 306 16.3 102430 42
2009-09-22 08:06:34 51°25.285 2°51.002 11.4 249 16.3 102420 42
2009-09-22 08:06:39 51°25.3 2°50.999 12.9 306 16.3 102420 42
2009-09-22 08:06:44 51°25.315 2°50.997 13.9 248 16.3 102420 43
2009-09-22 08:06:49 51°25.329 2°50.994 13.7 305 16.3 102420 43
2009-09-22 08:06:54 51°25.344 2°50.992 11.2 247 16.3 102420 43
2009-09-22 08:06:59 51°25.359 2°50.988 11.5 308 16.3 102420 43
2009-09-22 08:07:04 51°25.374 2°50.987 14 250 16.3 102410 43
2009-09-22 08:07:09 51°25.389 2°50.983 13.2 279 16.3 102410 43
2009-09-22 08:07:14 51°25.404 2°50.981 13 250 16.3 102430 43
2009-09-22 08:07:19 51°25.418 2°50.979 12.8 307 16.3 102430 43
2009-09-22 08:07:24 51°25.433 2°50.976 13.5 251 16.3 102430 43
2009-09-22 08:07:29 51°25.448 2°50.974 11.8 308 16.3 102430 43
2009-09-22 08:07:34 51°25.463 2°50.973 12.2 22 16.3 102430 43
2009-09-22 08:07:39 51°25.478 2°50.97 12.2 302 16.3 102430 43
2009-09-22 08:07:44 51°25.492 2°50.968 11.5 251 16.3 102420 41
2009-09-22 08:07:49 51°25.507 2°50.965 11 310 16.3 102420 41
2009-09-22 08:07:54 51°25.522 2°50.963 12.1 23 16.3 102430 41
2009-09-22 08:07:59 51°25.537 2°50.96 11.9 306 16.3 102430 41
2009-09-22 08:08:04 51°25.552 2°50.959 13.2 251 16.3 102430 43
2009-09-22 08:08:09 51°25.567 2°50.956 13.6 277 16.3 102430 43
2009-09-22 08:08:14 51°25.582 2°50.954 11.7 254 16.3 102430 43
2009-09-22 08:08:19 51°25.596 2°50.952 11.6 302 16.3 102430 43
2009-09-22 08:08:24 51°25.612 2°50.949 13.2 252 16.3 102440 42
2009-09-22 08:08:29 51°25.626 2°50.946 10.5 307 16.3 102440 42
2009-09-22 08:08:34 51°25.641 2°50.945 13.4 251 16.3 102450 42
2009-09-22 08:08:39 51°25.656 2°50.941 12.1 302 16.3 102450 42
2009-09-22 08:08:44 51°25.671 2°50.94 10.8 249 16.3 102430 42
2009-09-22 08:08:49 51°25.686 2°50.936 10.9 305 16.3 102430 42
2009-09-22 08:08:54 51°25.701 2°50.935 11.8 249 16.3 102450 43
2009-09-22 08:08:59 51°25.716 2°50.931 11.4 306 16.3 102450 43
2009-09-22 08:09:04 51°25.731 2°50.93 12.8 252 16.3 102430 43
2009-09-22 08:09:09 51°25.746 2°50.927 11 302 16.3 102430 43
2009-09-22 08:09:14 51°25.761 2°50.924 11.8 249 16.3 102430 42
2009-09-22 08:09:19 51°25.775 2°50.923 12.4 306 16.3 102430 42
2009-09-22 08:09:24 51°25.79 2°50.921 12.8 251 16.3 102430 42
2009-09-22 08:09:29 51°25.805 2°50.918 12.2 303 16.3 102430 42
2009-09-22 08:09:34 51°25.82 2°50.916 13.9 249 16.3 102430 42
2009-09-22 08:09:39 51°25.835 2°50.913 13.1 309 16.3 102430 42
2009-09-22 08:09:44 51°25.85 2°50.91 11.3 249 16.3 102420 42
2009-09-22 08:09:49 51°25.865 2°50.908 13.9 304 16.3 102420 42
2009-09-22 08:09:54 51°25.88 2°50.907 12.6 253 16.3 102440 42
2009-09-22 08:09:59 51°25.895 2°50.904 14.3 309 16.3 102440 42
2009-09-22 08:10:04 51°25.91 2°50.902 14.2 255 16.2 102430 43
2009-09-22 08:10:09 51°25.924 2°50.9 11.3 278 16.2 102430 43
2009-09-22 08:10:14 51°25.939 2°50.898 13.7 250 16.2 102430 43
2009-09-22 08:10:19 51°25.954 2°50.897 13.8 305 16.2 102430 43
2009-09-22 08:10:24 51°25.969 2°50.894 11.3 253 16.2 102430 41
2009-09-22 08:10:29 51°25.984 2°50.891 13 303 16.2 102430 41
2009-09-22 08:10:34 51°25.999 2°50.89 16 256 16.2 102440 43
2009-09-22 08:10:39 51°26.014 2°50.887 13.3 307 16.2 102440 43
2009-09-22 08:10:44 51°26.029 2°50.885 12.1 253 16.2 102430 43
2009-09-22 08:10:49 51°26.044 2°50.884 11.2 304 16.2 102430 43
2009-09-22 08:10:54 51°26.059 2°50.881 12.4 252 16.2 102440 43
2009-09-22 08:10:59 51°26.074 2°50.88 13.8 308 16.2 102440 43
2009-09-22 08:11:04 51°26.089 2°50.876 12 252 16.2 102440 43
2009-09-22 08:11:09 51°26.104 2°50.875 14.4 278 16.2 102440 43
2009-09-22 08:11:14 51°26.119 2°50.872 12.5 254 16.2 102430 42
2009-09-22 08:11:19 51°26.134 2°50.871 16.7 308 16.2 102430 42
2009-09-22 08:11:24 51°26.149 2°50.869 15.2 255 16.2 102440 43
2009-09-22 08:11:28 51°26.161 2°50.867 14.3 307 16.2 102440 43
2009-09-22 08:11:34 51°26.179 2°50.865 13.3 256 16.2 102430 42
2009-09-22 08:11:39 51°26.194 2°50.862 9.4 304 16.2 102430 42
2009-09-22 08:11:44 51°26.209 2°50.861 11.8 253 16.2 102450 42
2009-09-22 08:11:49 51°26.224 2°50.858 11.9 301 16.2 102450 42
2009-09-22 08:11:54 51°26.239 2°50.856 13.3 257 16.2 102440 43
2009-09-22 08:11:59 51°26.254 2°50.854 11.2 305 16.2 102440 43
2009-09-22 08:12:04 51°26.269 2°50.852 14.6 256 16.2 102430 42
2009-09-22 08:12:09 51°26.284 2°50.85 14.3 304 16.2 102430 42
2009-09-22 08:12:14 51°26.299 2°50.847 13.4 254 16.2 102440 42
2009-09-22 08:12:19 51°26.314 2°50.845 13.2 302 16.2 102440 42
2009-09-22 08:12:24 51°26.329 2°50.843 14.7 256 16.2 102420 44
2009-09-22 08:12:28 51°26.341 2°50.841 12.2 305 16.2 102420 44
2009-09-22 08:12:34 51°26.359 2°50.838 14.1 252 16.2 102440 43
2009-09-22 08:12:39 51°26.374 2°50.836 13.8 306 16.2 102440 43
2009-09-22 08:12:44 51°26.389 2°50.832 14.2 253 16.2 102430 43
2009-09-22 08:12:49 51°26.404 2°50.831 14.7 303 16.2 102430 43
2009-09-22 08:12:54 51°26.419 2°50.829 14.3 254 16.2 102450 42
2009-09-22 08:12:59 51°26.434 2°50.825 13.7 308 16.2 102450 42
2009-09-22 08:13:04 51°26.449 2°50.826 14.9 254 16.2 102430 42
2009-09-22 08:13:09 51°26.464 2°50.822 13.1 283 16.2 102430 42
2009-09-22 08:13:14 51°26.479 2°50.819 13.7 252 16.2 102440 43
2009-09-22 08:13:19 51°26.494 2°50.818 10.8 307 16.2 102440 43
2009-09-22 08:13:24 51°26.509 2°50.814 12.2 254 16.2 102440 41
2009-09-22 08:13:28 51°26.521 2°50.813 14.3 306 16.2 102440 41
2009-09-22 08:13:34 51°26.539 2°50.809 10.5 253 16.2 102430 42